Time;durP1;ratioP1;P1;durP2;ratioP2;P2;SDS_P1;SDS_P2;PMS_P1;PMS_P2;Temp;Humidity;BMP_temperature;BMP_pressure;BME280_temperature;BME280_humidity;BME280_pressure;Samples;Min_cycle;Max_cycle;Signal;HPM_P1;HPM_P2
2023/12/17 00:01:08;;;;;;;28.25;13.00;;;;;;;7.66;100.00;102583.13;4985474;28;21086;-78
2023/12/17 00:03:42;;;;;;;26.83;12.73;;;;;;;7.77;100.00;102589.75;4988122;28;20440;-78
2023/12/17 00:06:16;;;;;;;27.80;12.45;;;;;;;7.73;100.00;102585.81;5001461;28;20444;-78
2023/12/17 00:08:49;;;;;;;27.40;12.23;;;;;;;7.77;100.00;102587.03;4987205;28;20445;-77
2023/12/17 00:11:17;;;;;;;26.10;12.75;;;;;;;7.77;100.00;102588.94;4989000;28;20438;-78
2023/12/17 00:13:51;;;;;;;25.43;11.73;;;;;;;7.77;100.00;102581.63;4979279;28;20533;-78
2023/12/17 00:16:20;;;;;;;24.27;12.00;;;;;;;7.68;100.00;102582.94;4988084;28;20771;-79
2023/12/17 00:18:48;;;;;;;24.33;11.80;;;;;;;7.74;100.00;102584.75;4989042;28;20783;-78
2023/12/17 00:21:17;;;;;;;26.25;11.88;;;;;;;7.78;100.00;102590.59;5006412;28;20899;-78
2023/12/17 00:23:50;;;;;;;24.52;11.93;;;;;;;7.77;100.00;102591.63;4987034;28;20437;-78
2023/12/17 00:26:18;;;;;;;28.45;12.00;;;;;;;7.81;100.00;102587.47;4989423;28;20435;-78
2023/12/17 00:28:51;;;;;;;25.58;11.75;;;;;;;7.86;100.00;102579.53;4999743;28;20461;-78
2023/12/17 00:31:20;;;;;;;25.85;11.45;;;;;;;7.88;100.00;102571.16;4980965;28;20502;-78
2023/12/17 00:33:49;;;;;;;26.25;11.55;;;;;;;7.82;100.00;102570.16;5001180;28;20447;-78
2023/12/17 00:36:17;;;;;;;26.50;11.53;;;;;;;7.77;100.00;102569.97;4988390;28;20531;-79
2023/12/17 00:38:50;;;;;;;23.63;10.52;;;;;;;7.84;100.00;102554.50;4986607;28;20814;-79
2023/12/17 00:41:18;;;;;;;25.33;10.70;;;;;;;7.95;100.00;102551.09;4988544;28;20429;-79
2023/12/17 00:43:52;;;;;;;22.25;10.38;;;;;;;7.94;100.00;102573.00;5001143;28;20446;-78
2023/12/17 00:46:21;;;;;;;20.77;10.20;;;;;;;8.03;100.00;102557.34;4987683;28;20810;-78
2023/12/17 00:48:49;;;;;;;23.30;10.65;;;;;;;7.91;100.00;102549.91;5001000;28;20455;-78
2023/12/17 00:51:18;;;;;;;22.45;10.45;;;;;;;7.92;100.00;102545.28;4986883;28;20935;-78
2023/12/17 00:53:47;;;;;;;20.97;10.33;;;;;;;7.89;100.00;102551.16;5008945;28;20428;-79
2023/12/17 00:56:15;;;;;;;23.20;10.95;;;;;;;7.94;100.00;102563.00;5002494;28;20429;-79
2023/12/17 00:58:48;;;;;;;18.40;10.10;;;;;;;7.90;100.00;102537.38;5002161;28;20421;-78
2023/12/17 01:01:17;;;;;;;18.88;9.77;;;;;;;7.88;100.00;102541.34;4988005;28;20438;-78
2023/12/17 01:03:46;;;;;;;22.02;10.27;;;;;;;7.93;100.00;102550.50;4985729;28;20889;-81
2023/12/17 01:06:20;;;;;;;22.13;10.47;;;;;;;7.99;100.00;102554.22;4987568;28;20426;-78
2023/12/17 01:08:53;;;;;;;21.97;10.13;;;;;;;7.94;100.00;102557.59;5002984;28;20445;-80
2023/12/17 01:11:22;;;;;;;22.83;9.93;;;;;;;7.95;100.00;102553.81;4991455;28;20429;-79
2023/12/17 01:13:50;;;;;;;24.10;10.13;;;;;;;7.96;100.00;102547.34;4998660;28;20445;-78
2023/12/17 01:16:23;;;;;;;20.60;10.00;;;;;;;7.97;100.00;102554.44;5002677;28;20905;-80
2023/12/17 01:18:57;;;;;;;25.73;10.00;;;;;;;8.02;100.00;102545.66;4999581;28;20425;-78
2023/12/17 01:21:31;;;;;;;19.47;9.87;;;;;;;7.95;100.00;102540.25;4982155;28;20914;-79
2023/12/17 01:23:59;;;;;;;21.25;9.48;;;;;;;8.02;100.00;102550.25;4978395;28;20445;-80
2023/12/17 01:26:29;;;;;;;23.20;10.10;;;;;;;8.03;100.00;102539.19;4986644;28;20437;-79
2023/12/17 01:28:57;;;;;;;19.33;9.48;;;;;;;8.18;100.00;102539.72;5003704;28;20433;-78
2023/12/17 01:31:30;;;;;;;19.15;9.48;;;;;;;8.09;100.00;102551.88;4962170;28;20917;-78
2023/12/17 01:34:06;;;;;;;19.90;9.77;;;;;;;8.04;100.00;102557.13;4991083;28;20441;-78
2023/12/17 01:36:41;;;;;;;19.10;8.93;;;;;;;8.05;100.00;102547.09;4982976;28;20437;-78
2023/12/17 01:39:09;;;;;;;21.67;9.70;;;;;;;8.05;100.00;102541.69;4987057;28;20433;-80
2023/12/17 01:41:38;;;;;;;19.67;9.93;;;;;;;8.05;100.00;102539.81;4985041;28;20436;-78
2023/12/17 01:44:11;;;;;;;18.55;9.23;;;;;;;8.21;100.00;102534.91;4988913;28;20449;-80
2023/12/17 01:46:44;;;;;;;19.65;9.43;;;;;;;8.06;100.00;102522.47;4998691;28;20443;-77
2023/12/17 01:49:14;;;;;;;22.03;9.30;;;;;;;8.07;100.00;102505.16;4984971;28;20456;-78
2023/12/17 01:51:43;;;;;;;18.55;9.23;;;;;;;8.05;100.00;102504.56;5000340;28;20980;-80
2023/12/17 01:54:17;;;;;;;18.58;9.32;;;;;;;8.10;100.00;102499.28;4986449;28;20432;-79
2023/12/17 01:56:46;;;;;;;19.58;9.20;;;;;;;8.09;100.00;102510.38;4985541;28;20902;-78
2023/12/17 01:59:19;;;;;;;19.05;8.70;;;;;;;8.04;100.00;102511.03;4987275;28;20432;-79
2023/12/17 02:01:53;;;;;;;17.45;8.45;;;;;;;8.05;100.00;102515.41;5000630;28;20436;-79
2023/12/17 02:04:28;;;;;;;17.17;8.80;;;;;;;8.11;100.00;102522.66;4983414;28;20432;-78
2023/12/17 02:07:01;;;;;;;16.43;8.37;;;;;;;8.05;100.00;102533.53;5001149;28;20413;-79
2023/12/17 02:09:34;;;;;;;20.70;9.27;;;;;;;8.07;100.00;102526.03;4999472;28;20944;-78
2023/12/17 02:12:02;;;;;;;17.83;8.45;;;;;;;8.09;100.00;102542.91;4984949;28;20438;-78
2023/12/17 02:14:36;;;;;;;18.47;8.50;;;;;;;8.05;100.00;102531.69;4989598;28;20440;-78
2023/12/17 02:17:09;;;;;;;18.63;8.32;;;;;;;8.18;100.00;102522.63;5005588;28;20420;-77
2023/12/17 02:19:38;;;;;;;19.65;9.27;;;;;;;8.15;100.00;102520.34;4986967;28;20441;-78
2023/12/17 02:22:07;;;;;;;21.25;8.93;;;;;;;8.15;100.00;102523.06;5006400;28;20417;-77
2023/12/17 02:24:41;;;;;;;18.25;8.63;;;;;;;8.13;100.00;102509.72;5001725;28;20442;-79
2023/12/17 02:27:20;;;;;;;20.33;9.38;;;;;;;8.15;100.00;102520.34;5004708;28;20912;-77
2023/12/17 02:29:48;;;;;;;19.38;8.98;;;;;;;8.09;100.00;102513.94;4988117;28;20428;-78
2023/12/17 02:32:17;;;;;;;19.83;9.60;;;;;;;8.16;100.00;102514.72;4982289;28;20932;-79
2023/12/17 02:34:51;;;;;;;19.25;9.10;;;;;;;8.12;100.00;102513.47;4991756;28;20432;-78
2023/12/17 02:37:20;;;;;;;21.45;9.82;;;;;;;8.08;100.00;102501.41;4991357;28;20432;-77
2023/12/17 02:39:55;;;;;;;19.05;8.80;;;;;;;8.10;100.00;102504.72;5004807;28;20424;-78
2023/12/17 02:42:28;;;;;;;22.10;8.82;;;;;;;8.13;100.00;102498.03;4989058;28;20439;-78
2023/12/17 02:45:02;;;;;;;15.77;7.85;;;;;;;8.10;100.00;102512.03;5001078;28;20433;-78
2023/12/17 02:47:30;;;;;;;17.27;8.70;;;;;;;8.08;100.00;102512.25;5002919;28;20413;-78
2023/12/17 02:49:58;;;;;;;15.60;7.57;;;;;;;8.06;100.00;102502.69;5005416;28;20767;-78
2023/12/17 02:52:26;;;;;;;18.88;7.88;;;;;;;8.11;100.00;102500.97;4996833;28;20418;-79
2023/12/17 02:54:56;;;;;;;16.33;7.93;;;;;;;8.17;100.00;102502.81;5001875;28;20475;-78
2023/12/17 02:57:29;;;;;;;16.02;7.30;;;;;;;8.14;100.00;102495.09;5001888;28;20424;-77
2023/12/17 02:59:57;;;;;;;14.50;6.75;;;;;;;8.11;100.00;102487.41;5008357;28;20429;-78
2023/12/17 03:02:30;;;;;;;14.05;7.13;;;;;;;8.21;100.00;102500.47;4990253;28;20440;-77
2023/12/17 03:04:59;;;;;;;13.50;6.80;;;;;;;8.15;100.00;102496.78;5005165;28;20439;-78
2023/12/17 03:07:32;;;;;;;14.93;6.85;;;;;;;8.19;100.00;102502.59;4992592;28;20929;-78
2023/12/17 03:10:02;;;;;;;15.43;6.85;;;;;;;8.13;100.00;102498.03;4986042;28;20914;-79
2023/12/17 03:12:35;;;;;;;13.77;6.88;;;;;;;8.15;100.00;102479.69;5003524;28;20893;-79
2023/12/17 03:15:09;;;;;;;14.85;6.78;;;;;;;8.12;100.00;102472.81;4994236;28;20429;-77
2023/12/17 03:17:37;;;;;;;15.30;7.63;;;;;;;8.10;100.00;102480.31;5004579;28;20421;-78
2023/12/17 03:20:07;;;;;;;15.30;7.43;;;;;;;8.03;100.00;102471.41;5003593;28;20433;-78
2023/12/17 03:22:40;;;;;;;17.08;8.38;;;;;;;8.20;100.00;102468.16;4973237;28;20439;-78
2023/12/17 03:25:15;;;;;;;16.30;7.47;;;;;;;8.12;100.00;102478.22;5007888;28;20427;-79
2023/12/17 03:27:48;;;;;;;15.83;7.03;;;;;;;8.15;100.00;102475.06;4988652;28;20454;-79
2023/12/17 03:30:16;;;;;;;15.23;7.55;;;;;;;8.17;100.00;102464.00;4998148;28;20433;-78
2023/12/17 03:32:45;;;;;;;14.30;7.32;;;;;;;8.14;100.00;102467.16;5001578;28;20437;-81
2023/12/17 03:35:13;;;;;;;15.57;7.32;;;;;;;8.15;100.00;102472.38;5001355;28;20436;-79
2023/12/17 03:37:47;;;;;;;14.57;6.97;;;;;;;8.08;100.00;102471.59;5001195;28;20488;-78
2023/12/17 03:40:16;;;;;;;12.68;7.28;;;;;;;8.16;100.00;102481.31;5004807;28;20468;-78
2023/12/17 03:42:49;;;;;;;14.23;7.15;;;;;;;8.20;100.00;102463.56;5003088;28;20421;-78
2023/12/17 03:45:18;;;;;;;16.17;7.15;;;;;;;8.11;100.00;102468.41;5000231;28;20449;-78
2023/12/17 03:47:47;;;;;;;13.13;6.57;;;;;;;8.14;100.00;102467.97;5003717;28;20457;-79
2023/12/17 03:50:16;;;;;;;15.25;7.10;;;;;;;8.03;100.00;102465.97;5003089;28;20443;-78
2023/12/17 03:52:45;;;;;;;13.70;6.38;;;;;;;8.02;100.00;102461.59;4995186;28;20786;-79
2023/12/17 03:55:20;;;;;;;14.15;7.05;;;;;;;8.18;100.00;102471.91;5008531;28;20436;-79
2023/12/17 03:57:49;;;;;;;13.07;6.85;;;;;;;8.10;100.00;102465.94;5006387;28;21216;-77
2023/12/17 04:00:17;;;;;;;15.32;6.93;;;;;;;8.11;100.00;102463.00;4987164;28;21542;-78
2023/12/17 04:02:50;;;;;;;14.23;6.57;;;;;;;8.11;100.00;102471.13;4986968;28;20413;-78
2023/12/17 04:05:18;;;;;;;11.98;6.45;;;;;;;8.11;100.00;102473.84;5008896;28;20412;-78
2023/12/17 04:07:47;;;;;;;12.60;6.00;;;;;;;8.08;100.00;102485.13;4990806;28;20440;-78
2023/12/17 04:10:21;;;;;;;14.88;6.53;;;;;;;8.05;100.00;102469.31;5006059;28;20440;-78
2023/12/17 04:12:54;;;;;;;13.65;5.97;;;;;;;8.12;100.00;102482.81;5007199;28;20424;-79
2023/12/17 04:15:23;;;;;;;13.23;5.93;;;;;;;8.15;100.00;102480.50;5001313;28;20410;-78
2023/12/17 04:17:51;;;;;;;15.07;6.20;;;;;;;8.09;100.00;102485.97;5007397;28;20425;-78
2023/12/17 04:20:24;;;;;;;12.98;6.05;;;;;;;8.13;100.00;102482.63;4991292;28;20437;-78
2023/12/17 04:22:57;;;;;;;15.52;6.00;;;;;;;8.22;100.00;102480.44;5006194;28;20433;-78
2023/12/17 04:25:32;;;;;;;13.23;5.95;;;;;;;8.06;100.00;102479.09;5005171;28;20424;-78
2023/12/17 04:28:00;;;;;;;13.40;6.10;;;;;;;8.22;100.00;102479.63;4994121;28;20434;-79
2023/12/17 04:30:33;;;;;;;13.95;6.38;;;;;;;8.16;100.00;102474.03;5007711;28;20432;-79
2023/12/17 04:33:01;;;;;;;14.68;6.60;;;;;;;8.17;100.00;102482.97;4984585;28;20420;-77
2023/12/17 04:35:35;;;;;;;12.25;6.40;;;;;;;8.12;100.00;102480.94;4979655;28;20426;-78
2023/12/17 04:38:08;;;;;;;11.90;5.82;;;;;;;8.08;100.00;102478.88;4993243;28;20436;-79
2023/12/17 04:40:45;;;;;;;12.27;6.38;;;;;;;8.15;100.00;102477.78;5003038;28;20425;-78
2023/12/17 04:43:13;;;;;;;14.80;6.27;;;;;;;8.18;100.00;102488.19;5003330;28;20867;-77
2023/12/17 04:45:47;;;;;;;12.65;6.60;;;;;;;8.26;100.00;102495.25;5000182;28;20418;-79
2023/12/17 04:48:15;;;;;;;11.52;5.82;;;;;;;8.14;100.00;102480.72;4998538;28;20446;-78
2023/12/17 04:50:44;;;;;;;13.82;6.55;;;;;;;8.12;100.00;102480.94;5003150;28;20430;-78
2023/12/17 04:53:17;;;;;;;14.02;6.20;;;;;;;8.18;100.00;102496.31;4982755;28;20424;-77
2023/12/17 04:55:52;;;;;;;12.77;6.57;;;;;;;8.25;100.00;102496.28;5001116;28;20421;-77
2023/12/17 04:58:26;;;;;;;14.88;6.47;;;;;;;8.09;100.00;102483.25;5009096;28;20434;-78
2023/12/17 05:00:58;;;;;;;12.35;6.13;;;;;;;8.10;100.00;102496.59;5002215;28;20408;-79
2023/12/17 05:03:27;;;;;;;12.20;5.87;;;;;;;8.15;100.00;102507.63;5002303;28;20772;-78
2023/12/17 05:05:55;;;;;;;12.93;6.32;;;;;;;8.15;100.00;102494.06;4980969;28;20802;-78
2023/12/17 05:08:28;;;;;;;13.65;6.28;;;;;;;8.15;100.00;102488.63;5005102;28;20789;-78
2023/12/17 05:11:03;;;;;;;16.60;6.53;;;;;;;8.20;100.00;102490.69;4991238;28;20432;-79
2023/12/17 05:13:36;;;;;;;12.98;5.95;;;;;;;8.18;100.00;102488.19;4982367;28;20430;-79
2023/12/17 05:16:09;;;;;;;13.27;6.68;;;;;;;8.22;100.00;102495.91;5003951;28;20900;-78
2023/12/17 05:18:43;;;;;;;12.13;5.97;;;;;;;8.13;100.00;102493.47;4991683;28;20429;-78
2023/12/17 05:21:16;;;;;;;12.75;6.57;;;;;;;8.18;100.00;102498.22;4989709;28;20436;-79
2023/12/17 05:23:44;;;;;;;12.03;6.17;;;;;;;8.11;100.00;102497.44;4998979;28;20433;-78
2023/12/17 05:26:19;;;;;;;13.15;6.22;;;;;;;8.12;100.00;102518.91;4986845;28;20434;-78
2023/12/17 05:28:47;;;;;;;13.13;5.93;;;;;;;8.11;100.00;102511.81;4978623;28;20420;-80
2023/12/17 05:31:20;;;;;;;12.40;6.20;;;;;;;8.18;100.00;102525.34;5002452;28;20423;-79
2023/12/17 05:33:53;;;;;;;13.50;6.70;;;;;;;8.22;100.00;102525.75;4981111;28;20996;-77
2023/12/17 05:36:21;;;;;;;13.50;6.55;;;;;;;8.22;100.00;102520.31;4998604;28;20438;-77
2023/12/17 05:38:50;;;;;;;11.93;6.07;;;;;;;8.18;100.00;102528.88;5000169;28;20441;-80
2023/12/17 05:41:25;;;;;;;11.40;6.28;;;;;;;8.15;100.00;102534.75;4986155;28;20440;-79
2023/12/17 05:43:58;;;;;;;11.02;5.75;;;;;;;8.29;100.00;102519.22;4988426;28;20436;-78
2023/12/17 05:46:32;;;;;;;11.85;6.40;;;;;;;8.13;100.00;102514.31;4979820;28;20428;-80
2023/12/17 05:49:05;;;;;;;15.80;6.20;;;;;;;8.18;100.00;102503.63;5000502;28;20433;-79
2023/12/17 05:51:33;;;;;;;11.95;6.38;;;;;;;8.24;100.00;102505.47;5000199;28;20453;-79
2023/12/17 05:54:01;;;;;;;14.18;6.75;;;;;;;8.17;100.00;102518.25;4985011;28;20914;-79
2023/12/17 05:56:30;;;;;;;12.85;6.25;;;;;;;8.16;100.00;102506.56;5005244;28;20416;-78
2023/12/17 05:59:04;;;;;;;13.13;6.78;;;;;;;8.15;100.00;102517.66;5002549;28;21969;-78
2023/12/17 06:01:37;;;;;;;13.17;6.73;;;;;;;8.11;100.00;102509.09;5000601;28;20526;-79
2023/12/17 06:04:10;;;;;;;13.63;6.65;;;;;;;8.12;100.00;102499.06;4978725;28;20449;-79
2023/12/17 06:06:39;;;;;;;13.68;6.72;;;;;;;8.12;100.00;102507.22;4979607;28;20425;-79
2023/12/17 06:09:12;;;;;;;12.43;6.40;;;;;;;8.20;100.00;102501.53;5001923;28;20900;-79
2023/12/17 06:11:42;;;;;;;11.68;6.38;;;;;;;8.07;100.00;102504.34;4997402;28;20429;-80
2023/12/17 06:14:16;;;;;;;13.07;6.38;;;;;;;8.17;100.00;102501.97;5005802;28;20432;-79
2023/12/17 06:16:50;;;;;;;14.75;6.90;;;;;;;8.19;100.00;102513.44;4988047;28;20443;-78
2023/12/17 06:19:18;;;;;;;13.10;6.90;;;;;;;8.13;100.00;102520.56;4993964;28;20415;-78
2023/12/17 06:21:51;;;;;;;16.80;6.90;;;;;;;8.20;100.00;102506.13;4989531;28;20906;-77
2023/12/17 06:24:19;;;;;;;12.80;6.20;;;;;;;8.28;100.00;102505.88;4986062;28;20431;-79
2023/12/17 06:26:54;;;;;;;11.32;6.13;;;;;;;8.13;100.00;102509.72;5001338;28;21105;-79
2023/12/17 06:29:22;;;;;;;11.55;6.30;;;;;;;8.20;100.00;102511.56;5001847;28;20417;-78
2023/12/17 06:31:55;;;;;;;14.17;6.13;;;;;;;8.24;100.00;102513.59;4998028;28;20438;-78
2023/12/17 06:34:28;;;;;;;14.27;6.55;;;;;;;8.19;100.00;102518.88;4985433;28;21038;-78
2023/12/17 06:36:57;;;;;;;13.05;5.90;;;;;;;8.21;100.00;102513.22;4986820;28;20432;-77
2023/12/17 06:39:25;;;;;;;11.48;5.65;;;;;;;8.27;100.00;102501.47;4983437;28;20430;-81
2023/12/17 06:42:00;;;;;;;12.55;6.20;;;;;;;8.21;100.00;102510.50;5002170;28;20424;-79
2023/12/17 06:44:33;;;;;;;10.38;5.75;;;;;;;8.17;100.00;102497.41;4987274;28;21244;-78
2023/12/17 06:47:01;;;;;;;12.90;6.40;;;;;;;8.10;100.00;102502.00;4973942;28;20433;-78
2023/12/17 06:49:29;;;;;;;12.77;6.10;;;;;;;8.17;100.00;102493.84;4984342;28;20452;-79
2023/12/17 06:52:02;;;;;;;13.57;5.80;;;;;;;8.12;100.00;102482.81;4998653;28;20442;-79
2023/12/17 06:54:30;;;;;;;12.10;6.40;;;;;;;8.20;100.00;102487.16;4986898;28;20429;-79
2023/12/17 06:57:00;;;;;;;10.55;5.68;;;;;;;8.23;100.00;102476.69;4984433;28;20789;-81
2023/12/17 06:59:33;;;;;;;10.77;5.70;;;;;;;8.18;100.00;102474.63;4991304;28;20516;-80
2023/12/17 07:02:07;;;;;;;13.45;5.65;;;;;;;8.19;100.00;102480.91;5008827;28;20424;-80
2023/12/17 07:04:40;;;;;;;11.35;6.15;;;;;;;8.16;100.00;102481.31;4981121;28;20433;-79
2023/12/17 07:07:13;;;;;;;12.63;6.00;;;;;;;8.14;100.00;102470.69;5005620;28;20429;-79
2023/12/17 07:09:41;;;;;;;11.68;6.28;;;;;;;8.20;100.00;102482.53;5004973;28;20435;-81
2023/12/17 07:12:11;;;;;;;11.37;5.90;;;;;;;8.22;100.00;102482.34;4989610;28;20438;-79
2023/12/17 07:14:44;;;;;;;14.07;6.38;;;;;;;8.18;100.00;102490.06;4988205;28;20924;-80
2023/12/17 07:17:18;;;;;;;9.38;5.53;;;;;;;8.23;100.00;102481.28;5006527;28;20428;-78
2023/12/17 07:19:51;;;;;;;13.02;5.90;;;;;;;8.21;100.00;102489.63;5006660;28;20435;-79
2023/12/17 07:22:24;;;;;;;12.40;5.93;;;;;;;8.26;100.00;102476.25;5007182;28;20430;-79
2023/12/17 07:24:58;;;;;;;11.33;5.87;;;;;;;8.26;100.00;102476.25;5011549;28;20421;-79
2023/12/17 07:27:33;;;;;;;10.85;6.18;;;;;;;8.21;100.00;102486.09;5022199;28;20804;-79
2023/12/17 07:30:07;;;;;;;10.03;5.40;;;;;;;8.32;100.00;102488.91;4983014;28;20418;-80
2023/12/17 07:32:41;;;;;;;15.68;6.15;;;;;;;8.26;100.00;102475.41;5002520;28;20422;-78
2023/12/17 07:35:09;;;;;;;10.98;5.78;;;;;;;8.24;100.00;102477.53;5001577;28;20439;-81
2023/12/17 07:37:37;;;;;;;11.90;5.88;;;;;;;8.25;100.00;102481.91;4995249;28;20436;-78
2023/12/17 07:40:06;;;;;;;13.13;6.10;;;;;;;8.25;100.00;102487.31;4995164;28;20428;-80
2023/12/17 07:42:36;;;;;;;12.95;5.88;;;;;;;8.22;100.00;102504.03;5003717;28;20428;-79
2023/12/17 07:45:10;;;;;;;12.63;5.90;;;;;;;8.23;100.00;102492.97;4989363;28;20428;-78
2023/12/17 07:47:44;;;;;;;11.88;5.70;;;;;;;8.25;100.00;102485.44;4990928;28;20434;-79
2023/12/17 07:50:17;;;;;;;12.00;5.60;;;;;;;8.32;100.00;102477.25;4986520;28;20445;-80
2023/12/17 07:52:51;;;;;;;11.57;5.78;;;;;;;8.31;100.00;102481.84;4990412;28;20457;-79
2023/12/17 07:55:24;;;;;;;10.23;5.60;;;;;;;8.23;100.00;102476.69;5005071;28;20933;-79
2023/12/17 07:57:59;;;;;;;10.65;5.60;;;;;;;8.21;100.00;102478.78;4981649;28;20452;-78
2023/12/17 08:00:27;;;;;;;11.63;5.60;;;;;;;8.23;100.00;102471.28;5003760;28;20798;-78
2023/12/17 08:02:55;;;;;;;10.32;5.72;;;;;;;8.33;100.00;102460.75;4990477;28;20431;-78
2023/12/17 08:05:23;;;;;;;12.38;6.00;;;;;;;8.36;100.00;102462.19;5004520;28;20430;-79
2023/12/17 08:07:56;;;;;;;11.57;5.70;;;;;;;8.38;100.00;102451.94;4984741;28;20437;-79
2023/12/17 08:10:31;;;;;;;14.43;6.10;;;;;;;8.33;100.00;102457.22;4991140;28;20442;-81
2023/12/17 08:13:01;;;;;;;11.93;6.20;;;;;;;8.53;100.00;102457.06;4991957;28;21099;-78
2023/12/17 08:15:29;;;;;;;12.38;5.97;;;;;;;8.38;100.00;102465.50;4988290;28;20463;-79
2023/12/17 08:18:03;;;;;;;12.93;5.90;;;;;;;8.38;100.00;102462.78;4985517;28;20440;-80
2023/12/17 08:20:31;;;;;;;13.32;6.30;;;;;;;8.44;100.00;102458.38;4985554;28;20438;-78
2023/12/17 08:23:04;;;;;;;14.10;6.53;;;;;;;8.40;100.00;102476.16;4984106;28;22672;-79
2023/12/17 08:25:38;;;;;;;14.30;6.85;;;;;;;8.45;100.00;102470.91;4996069;28;20437;-80
2023/12/17 08:28:07;;;;;;;11.38;5.93;;;;;;;8.48;100.00;102478.63;5002061;28;20797;-82
2023/12/17 08:30:38;;;;;;;12.13;6.60;;;;;;;8.53;100.00;102483.38;4986391;28;20428;-79
2023/12/17 08:33:12;;;;;;;12.13;6.50;;;;;;;8.50;100.00;102476.50;5002085;28;20430;-78
2023/12/17 08:35:41;;;;;;;12.60;6.40;;;;;;;8.47;100.00;102480.50;4985392;28;20446;-78
2023/12/17 08:38:09;;;;;;;12.13;6.10;;;;;;;8.54;100.00;102485.88;5004278;28;20417;-80
2023/12/17 08:40:42;;;;;;;15.98;7.15;;;;;;;8.40;100.00;102487.84;4992948;28;20442;-79
2023/12/17 08:43:17;;;;;;;14.85;6.50;;;;;;;8.46;100.00;102492.38;5003026;28;20446;-80
2023/12/17 08:45:45;;;;;;;15.07;6.43;;;;;;;8.48;100.00;102479.44;5006521;28;20432;-78
2023/12/17 08:48:18;;;;;;;11.35;6.25;;;;;;;8.48;100.00;102471.31;4989835;28;21047;-79
2023/12/17 08:50:51;;;;;;;12.32;6.28;;;;;;;8.59;100.00;102472.47;4995092;28;20424;-79
2023/12/17 08:53:26;;;;;;;14.48;6.85;;;;;;;8.58;100.00;102465.38;4988361;28;20920;-79
2023/12/17 08:55:59;;;;;;;14.85;6.75;;;;;;;8.73;100.00;102472.34;5006410;28;20424;-80
2023/12/17 08:58:34;;;;;;;12.02;6.40;;;;;;;8.66;100.00;102473.25;4981345;28;20441;-78
2023/12/17 09:01:02;;;;;;;15.15;6.53;;;;;;;8.73;100.00;102481.31;4977701;28;20425;-79
2023/12/17 09:03:35;;;;;;;11.57;6.80;;;;;;;8.70;100.00;102481.78;4988739;28;20445;-80
2023/12/17 09:06:04;;;;;;;14.18;6.50;;;;;;;8.65;100.00;102470.75;4988766;28;20905;-79
2023/12/17 09:08:37;;;;;;;12.88;6.63;;;;;;;8.67;100.00;102474.91;5003411;28;20437;-80
2023/12/17 09:11:05;;;;;;;15.23;6.97;;;;;;;8.67;100.00;102485.75;4993265;28;20437;-79
2023/12/17 09:13:40;;;;;;;13.32;7.00;;;;;;;8.67;100.00;102488.47;4990399;28;20467;-78
2023/12/17 09:16:13;;;;;;;11.20;6.60;;;;;;;8.71;100.00;102488.03;5006988;28;20472;-79
2023/12/17 09:18:42;;;;;;;15.32;6.60;;;;;;;8.64;100.00;102479.94;5005611;28;20421;-80
2023/12/17 09:21:15;;;;;;;14.15;6.60;;;;;;;8.74;100.00;102480.28;4991852;28;20815;-78
2023/12/17 09:23:43;;;;;;;13.02;6.68;;;;;;;8.66;100.00;102475.13;5005179;28;20426;-79
2023/12/17 09:26:16;;;;;;;15.32;6.45;;;;;;;8.70;100.00;102478.22;5010180;28;20429;-82
2023/12/17 09:28:47;;;;;;;15.75;6.60;;;;;;;8.71;100.00;102494.28;5002702;28;20463;-78
2023/12/17 09:31:20;;;;;;;12.00;6.40;;;;;;;8.76;100.00;102475.44;5008276;28;20427;-79
2023/12/17 09:33:49;;;;;;;13.35;6.28;;;;;;;8.72;100.00;102482.38;4992722;28;20436;-79
2023/12/17 09:36:25;;;;;;;13.82;6.72;;;;;;;8.78;100.00;102469.78;5000496;28;20436;-80
2023/12/17 09:38:58;;;;;;;12.57;6.88;;;;;;;8.94;100.00;102469.22;5002065;28;20421;-79
2023/12/17 09:41:32;;;;;;;15.43;7.95;;;;;;;8.84;100.00;102466.19;5003746;28;22416;-78
2023/12/17 09:44:07;;;;;;;14.70;8.05;;;;;;;8.82;100.00;102463.72;4989531;28;20440;-79
2023/12/17 09:46:36;;;;;;;16.92;8.95;;;;;;;8.75;100.00;102467.53;5006824;28;20427;-80
2023/12/17 09:49:09;;;;;;;16.38;9.07;;;;;;;8.84;100.00;102472.44;4988584;28;20464;-78
2023/12/17 09:51:47;;;;;;;18.55;10.25;;;;;;;8.82;100.00;102461.00;4982642;28;20429;-79
2023/12/17 09:54:20;;;;;;;15.45;9.50;;;;;;;8.88;100.00;102464.69;4988373;28;21438;-80
2023/12/17 09:56:54;;;;;;;18.38;11.23;;;;;;;8.83;100.00;102459.91;4992101;28;20445;-79
2023/12/17 09:59:24;;;;;;;19.05;11.13;;;;;;;8.87;100.00;102463.03;5003644;28;20431;-80
2023/12/17 10:01:57;;;;;;;17.37;10.90;;;;;;;8.84;100.00;102463.47;4988021;28;20438;-78
2023/12/17 10:04:26;;;;;;;17.63;10.90;;;;;;;8.86;100.00;102453.22;5002633;28;20438;-77
2023/12/17 10:06:59;;;;;;;19.27;10.82;;;;;;;8.98;100.00;102466.88;5005568;28;20420;-79
2023/12/17 10:09:27;;;;;;;17.67;10.30;;;;;;;8.89;100.00;102458.19;5005884;28;20447;-78
2023/12/17 10:12:01;;;;;;;18.65;9.70;;;;;;;8.86;100.00;102453.22;4989886;28;20793;-77
2023/12/17 10:14:31;;;;;;;16.98;10.30;;;;;;;8.83;100.00;102442.81;5002638;28;20416;-79
2023/12/17 10:17:04;;;;;;;15.57;9.30;;;;;;;8.81;100.00;102442.19;5006086;28;20429;-79
2023/12/17 10:19:32;;;;;;;17.80;9.52;;;;;;;8.84;100.00;102437.16;5006512;28;20434;-78
2023/12/17 10:22:08;;;;;;;15.00;8.70;;;;;;;8.77;100.00;102449.13;5005901;28;20418;-78
2023/12/17 10:24:42;;;;;;;15.93;9.23;;;;;;;8.82;100.00;102439.28;4984355;28;20504;-78
2023/12/17 10:27:17;;;;;;;16.02;9.50;;;;;;;8.92;100.00;102441.47;4987045;28;20459;-78
2023/12/17 10:29:49;;;;;;;15.40;8.97;;;;;;;8.91;100.00;102439.78;5001872;28;20801;-76
2023/12/17 10:32:21;;;;;;;14.10;9.13;;;;;;;8.76;100.00;102442.88;5003054;28;20440;-78
2023/12/17 10:34:55;;;;;;;18.92;9.70;;;;;;;8.77;100.00;102439.09;4992437;28;20429;-75
2023/12/17 10:37:28;;;;;;;16.65;8.60;;;;;;;8.82;100.00;102433.84;4992310;28;20438;-77
2023/12/17 10:40:02;;;;;;;15.43;9.02;;;;;;;8.87;100.00;102440.47;4984432;28;20424;-78
2023/12/17 10:42:37;;;;;;;12.98;8.25;;;;;;;8.92;100.00;102429.75;5008332;28;20795;-79
2023/12/17 10:45:12;;;;;;;15.63;9.30;;;;;;;8.89;100.00;102427.50;5005605;28;20432;-79
2023/12/17 10:47:48;;;;;;;17.30;8.80;;;;;;;8.90;100.00;102421.03;5005484;28;20431;-80
2023/12/17 10:50:19;;;;;;;16.33;8.25;;;;;;;9.06;100.00;102406.84;4990562;28;20425;-78
2023/12/17 10:52:52;;;;;;;14.40;8.07;;;;;;;8.92;100.00;102406.16;4982968;28;20424;-80
2023/12/17 10:55:25;;;;;;;12.68;7.63;;;;;;;8.94;100.00;102411.38;5008469;28;20455;-82
2023/12/17 10:57:59;;;;;;;15.33;8.10;;;;;;;9.01;100.00;102410.22;4992931;28;20439;-79
2023/12/17 11:00:31;;;;;;;13.00;7.80;;;;;;;8.90;100.00;102402.84;4994225;28;20440;-79
2023/12/17 11:03:06;;;;;;;14.00;7.93;;;;;;;8.85;100.00;102400.81;4989810;28;20427;-80
2023/12/17 11:05:34;;;;;;;15.98;8.63;;;;;;;8.91;100.00;102388.22;5006746;28;20429;-79
2023/12/17 11:08:03;;;;;;;12.73;7.60;;;;;;;8.93;100.00;102385.25;4987592;28;20802;-82
2023/12/17 11:10:38;;;;;;;14.20;7.82;;;;;;;9.08;100.00;102391.13;5004315;28;21192;-76
2023/12/17 11:13:11;;;;;;;14.75;8.02;;;;;;;9.00;100.00;102386.00;4989365;28;20437;-77
2023/12/17 11:15:42;;;;;;;13.82;7.97;;;;;;;8.96;100.00;102380.22;5006261;28;20908;-83
2023/12/17 11:18:10;;;;;;;13.45;8.50;;;;;;;8.80;100.00;102386.25;5003176;28;20452;-81
2023/12/17 11:20:45;;;;;;;15.00;8.40;;;;;;;8.76;100.00;102379.63;5002649;28;20444;-76
2023/12/17 11:23:19;;;;;;;14.23;8.52;;;;;;;8.73;100.00;102375.47;5007264;28;20434;-79
2023/12/17 11:25:47;;;;;;;15.65;9.32;;;;;;;8.71;100.00;102371.31;4990570;28;20869;-78
2023/12/17 11:28:23;;;;;;;14.00;8.95;;;;;;;8.60;100.00;102365.56;4985717;28;21202;-77
2023/12/17 11:30:54;;;;;;;14.55;9.00;;;;;;;8.55;100.00;102364.56;5003189;28;20429;-78
2023/12/17 11:33:28;;;;;;;13.65;9.05;;;;;;;8.48;100.00;102349.22;4989338;28;20432;-78
2023/12/17 11:36:03;;;;;;;13.95;9.00;;;;;;;8.40;100.00;102335.91;5005977;28;20450;-78